Pagrindinis puslapis
METAR-TAF:

METAR-TAF

Oro uostai :

Madera Municipal Airport

Madera, Kalifornija, Jungtinės Amerikos Valstijos

platuma: 36-59-12N, ilguma: 120-06-39W, Aukštis: 77 m

Dabartinis oras

Ataskaita buvo paskelbta 25 minutes, ne 06:53 UTC
Vėjas 5 kt iš Vakarų/Šiaurės Vakarų
Temperatūra 27°C
Drėgmė 42%
Slėgis 1008 hPa
Matomumas: 16.1 km
Giedras dangus

METAR: KMAE 170653Z AUTO 30005KT 10SM CLR 27/13 A2976 RMK AO2 SLP073 T02670133

Laikas: 00:18 (07:18 UTC)


TAF: trūkstamas

Orai ataskaitas ir orų prognozės (METAR, TAF).

turimą stotys yra geltonos ir raudonos taškus žemėlapyje.

Perkelti pele per norėdami pamatyti stoties vardą.

Tada spustelėkite, norėdami matyti oro stebėjimo ir prognozės.

Norėdami pakeisti žemėlapį: spustelėkite ant žalios mygtukų su juodo kryžiaus žemyn,; žalią mygtuką su brūkšneliu, jei norite nutolinti; arba žalių rodyklių gretimoms žemėlapius.


METAR-TAF: